sensor_id;sensor_type;location;lat;lon;timestamp;P1;durP1;ratioP1;P2;durP2;ratioP2
31270;SDS011;17904;47.420;9.310;2022-07-11T00:02:13;4.03;;;1.08;;
31270;SDS011;17904;47.420;9.310;2022-07-11T00:04:41;4.85;;;1.17;;
31270;SDS011;17904;47.420;9.310;2022-07-11T00:07:09;6.93;;;1.30;;
31270;SDS011;17904;47.420;9.310;2022-07-11T00:09:36;2.08;;;0.90;;
31270;SDS011;17904;47.420;9.310;2022-07-11T00:12:03;2.35;;;1.00;;
31270;SDS011;17904;47.420;9.310;2022-07-11T00:14:31;3.78;;;1.38;;
31270;SDS011;17904;47.420;9.310;2022-07-11T00:19:24;12.25;;;1.45;;
31270;SDS011;17904;47.420;9.310;2022-07-11T00:21:51;4.10;;;1.45;;
31270;SDS011;17904;47.420;9.310;2022-07-11T00:24:19;3.72;;;1.48;;
31270;SDS011;17904;47.420;9.310;2022-07-11T00:26:47;5.95;;;1.40;;
31270;SDS011;17904;47.420;9.310;2022-07-11T00:29:15;4.93;;;1.30;;
31270;SDS011;17904;47.420;9.310;2022-07-11T00:31:43;8.18;;;1.42;;
31270;SDS011;17904;47.420;9.310;2022-07-11T00:34:10;5.80;;;1.50;;
31270;SDS011;17904;47.420;9.310;2022-07-11T00:36:38;10.20;;;1.50;;
31270;SDS011;17904;47.420;9.310;2022-07-11T00:39:04;4.40;;;1.55;;
31270;SDS011;17904;47.420;9.310;2022-07-11T00:41:32;9.10;;;1.30;;
31270;SDS011;17904;47.420;9.310;2022-07-11T00:43:59;3.08;;;1.35;;
31270;SDS011;17904;47.420;9.310;2022-07-11T00:46:28;5.38;;;1.30;;
31270;SDS011;17904;47.420;9.310;2022-07-11T00:48:56;4.70;;;1.40;;
31270;SDS011;17904;47.420;9.310;2022-07-11T00:51:24;3.10;;;1.25;;
31270;SDS011;17904;47.420;9.310;2022-07-11T00:53:53;6.35;;;1.17;;
31270;SDS011;17904;47.420;9.310;2022-07-11T00:56:25;2.45;;;0.85;;
31270;SDS011;17904;47.420;9.310;2022-07-11T00:58:54;3.13;;;0.90;;
31270;SDS011;17904;47.420;9.310;2022-07-11T01:01:22;6.30;;;1.52;;
31270;SDS011;17904;47.420;9.310;2022-07-11T01:03:49;5.30;;;1.10;;
31270;SDS011;17904;47.420;9.310;2022-07-11T01:06:17;3.40;;;1.23;;
31270;SDS011;17904;47.420;9.310;2022-07-11T01:08:44;4.47;;;1.17;;
31270;SDS011;17904;47.420;9.310;2022-07-11T01:11:11;2.00;;;1.08;;
31270;SDS011;17904;47.420;9.310;2022-07-11T01:13:42;2.15;;;0.90;;
31270;SDS011;17904;47.420;9.310;2022-07-11T01:16:15;6.70;;;1.35;;
31270;SDS011;17904;47.420;9.310;2022-07-11T01:18:44;3.15;;;1.00;;
31270;SDS011;17904;47.420;9.310;2022-07-11T01:21:35;8.52;;;1.38;;
31270;SDS011;17904;47.420;9.310;2022-07-11T01:24:06;3.75;;;1.20;;
31270;SDS011;17904;47.420;9.310;2022-07-11T01:26:35;8.45;;;1.45;;
31270;SDS011;17904;47.420;9.310;2022-07-11T01:29:09;2.80;;;1.13;;
31270;SDS011;17904;47.420;9.310;2022-07-11T01:31:38;4.97;;;1.20;;
31270;SDS011;17904;47.420;9.310;2022-07-11T01:34:06;2.38;;;0.93;;
31270;SDS011;17904;47.420;9.310;2022-07-11T01:36:34;3.60;;;1.20;;
31270;SDS011;17904;47.420;9.310;2022-07-11T01:39:01;1.20;;;0.93;;
31270;SDS011;17904;47.420;9.310;2022-07-11T01:41:28;5.95;;;1.05;;
31270;SDS011;17904;47.420;9.310;2022-07-11T01:43:55;2.78;;;1.00;;
31270;SDS011;17904;47.420;9.310;2022-07-11T01:48:50;1.58;;;0.80;;
31270;SDS011;17904;47.420;9.310;2022-07-11T01:51:17;4.18;;;1.67;;
31270;SDS011;17904;47.420;9.310;2022-07-11T01:53:44;2.42;;;0.88;;
31270;SDS011;17904;47.420;9.310;2022-07-11T01:56:12;3.42;;;1.30;;
31270;SDS011;17904;47.420;9.310;2022-07-11T01:58:51;3.72;;;1.65;;
31270;SDS011;17904;47.420;9.310;2022-07-11T02:03:45;3.70;;;1.00;;
31270;SDS011;17904;47.420;9.310;2022-07-11T02:06:12;5.45;;;1.35;;
31270;SDS011;17904;47.420;9.310;2022-07-11T02:08:40;4.60;;;1.23;;
31270;SDS011;17904;47.420;9.310;2022-07-11T02:11:07;6.03;;;1.13;;
31270;SDS011;17904;47.420;9.310;2022-07-11T02:13:34;3.97;;;1.70;;
31270;SDS011;17904;47.420;9.310;2022-07-11T02:16:01;6.53;;;1.30;;
31270;SDS011;17904;47.420;9.310;2022-07-11T02:18:29;5.07;;;1.20;;
31270;SDS011;17904;47.420;9.310;2022-07-11T02:20:56;3.60;;;1.20;;
31270;SDS011;17904;47.420;9.310;2022-07-11T02:23:23;5.40;;;1.60;;
31270;SDS011;17904;47.420;9.310;2022-07-11T02:25:50;4.28;;;1.30;;
31270;SDS011;17904;47.420;9.310;2022-07-11T02:28:18;2.63;;;1.42;;
31270;SDS011;17904;47.420;9.310;2022-07-11T02:30:45;2.70;;;1.23;;
31270;SDS011;17904;47.420;9.310;2022-07-11T02:33:12;4.40;;;1.20;;
31270;SDS011;17904;47.420;9.310;2022-07-11T02:35:43;4.90;;;1.20;;
31270;SDS011;17904;47.420;9.310;2022-07-11T02:38:12;2.85;;;1.38;;
31270;SDS011;17904;47.420;9.310;2022-07-11T02:40:41;2.88;;;1.33;;
31270;SDS011;17904;47.420;9.310;2022-07-11T02:43:11;3.70;;;1.58;;
31270;SDS011;17904;47.420;9.310;2022-07-11T02:48:05;2.38;;;1.08;;
31270;SDS011;17904;47.420;9.310;2022-07-11T02:50:33;3.42;;;1.50;;
31270;SDS011;17904;47.420;9.310;2022-07-11T02:53:00;4.18;;;1.58;;
31270;SDS011;17904;47.420;9.310;2022-07-11T02:55:27;4.18;;;1.77;;
31270;SDS011;17904;47.420;9.310;2022-07-11T02:57:54;3.22;;;1.30;;
31270;SDS011;17904;47.420;9.310;2022-07-11T03:02:49;2.33;;;1.20;;
31270;SDS011;17904;47.420;9.310;2022-07-11T03:05:16;2.90;;;1.30;;
31270;SDS011;17904;47.420;9.310;2022-07-11T03:07:44;2.22;;;1.20;;
31270;SDS011;17904;47.420;9.310;2022-07-11T03:10:11;3.47;;;1.05;;
31270;SDS011;17904;47.420;9.310;2022-07-11T03:12:38;2.28;;;1.27;;
31270;SDS011;17904;47.420;9.310;2022-07-11T03:15:05;7.07;;;1.70;;
31270;SDS011;17904;47.420;9.310;2022-07-11T03:17:33;4.88;;;1.80;;
31270;SDS011;17904;47.420;9.310;2022-07-11T03:20:02;8.00;;;1.63;;
31270;SDS011;17904;47.420;9.310;2022-07-11T03:22:33;1.70;;;1.27;;
31270;SDS011;17904;47.420;9.310;2022-07-11T03:25:01;4.57;;;1.50;;
31270;SDS011;17904;47.420;9.310;2022-07-11T03:27:32;2.67;;;1.33;;
31270;SDS011;17904;47.420;9.310;2022-07-11T03:29:59;9.10;;;2.47;;
31270;SDS011;17904;47.420;9.310;2022-07-11T03:32:26;5.78;;;1.38;;
31270;SDS011;17904;47.420;9.310;2022-07-11T03:34:55;5.50;;;1.70;;
31270;SDS011;17904;47.420;9.310;2022-07-11T03:37:41;3.88;;;1.65;;
31270;SDS011;17904;47.420;9.310;2022-07-11T03:40:09;3.58;;;1.88;;
31270;SDS011;17904;47.420;9.310;2022-07-11T03:42:36;3.33;;;1.88;;
31270;SDS011;17904;47.420;9.310;2022-07-11T03:47:30;3.25;;;1.38;;
31270;SDS011;17904;47.420;9.310;2022-07-11T03:49:58;2.03;;;1.58;;
31270;SDS011;17904;47.420;9.310;2022-07-11T03:52:27;1.95;;;1.38;;
31270;SDS011;17904;47.420;9.310;2022-07-11T03:54:54;3.13;;;1.88;;
31270;SDS011;17904;47.420;9.310;2022-07-11T03:57:21;1.65;;;1.35;;
31270;SDS011;17904;47.420;9.310;2022-07-11T03:59:48;2.58;;;1.70;;
31270;SDS011;17904;47.420;9.310;2022-07-11T04:02:15;2.42;;;1.67;;
31270;SDS011;17904;47.420;9.310;2022-07-11T04:04:42;1.85;;;1.60;;
31270;SDS011;17904;47.420;9.310;2022-07-11T04:07:09;3.35;;;1.65;;
31270;SDS011;17904;47.420;9.310;2022-07-11T04:09:36;3.42;;;1.48;;
31270;SDS011;17904;47.420;9.310;2022-07-11T04:12:03;3.40;;;2.03;;
31270;SDS011;17904;47.420;9.310;2022-07-11T04:14:31;3.72;;;1.85;;
31270;SDS011;17904;47.420;9.310;2022-07-11T04:16:58;4.20;;;1.65;;
31270;SDS011;17904;47.420;9.310;2022-07-11T04:19:25;6.95;;;1.80;;
31270;SDS011;17904;47.420;9.310;2022-07-11T04:21:52;2.83;;;1.77;;
31270;SDS011;17904;47.420;9.310;2022-07-11T04:24:19;4.72;;;1.63;;
31270;SDS011;17904;47.420;9.310;2022-07-11T04:26:47;6.63;;;1.90;;
31270;SDS011;17904;47.420;9.310;2022-07-11T04:29:14;6.00;;;1.80;;
31270;SDS011;17904;47.420;9.310;2022-07-11T04:34:08;2.75;;;1.73;;
31270;SDS011;17904;47.420;9.310;2022-07-11T04:36:35;7.15;;;2.42;;
31270;SDS011;17904;47.420;9.310;2022-07-11T04:39:02;5.43;;;1.63;;
31270;SDS011;17904;47.420;9.310;2022-07-11T04:41:29;2.17;;;1.98;;
31270;SDS011;17904;47.420;9.310;2022-07-11T04:46:23;3.78;;;1.50;;
31270;SDS011;17904;47.420;9.310;2022-07-11T04:48:50;6.35;;;2.20;;
31270;SDS011;17904;47.420;9.310;2022-07-11T04:51:18;8.52;;;2.08;;
31270;SDS011;17904;47.420;9.310;2022-07-11T04:53:45;3.75;;;1.92;;
31270;SDS011;17904;47.420;9.310;2022-07-11T04:56:12;2.25;;;1.90;;
31270;SDS011;17904;47.420;9.310;2022-07-11T04:58:40;4.15;;;2.55;;
31270;SDS011;17904;47.420;9.310;2022-07-11T05:01:07;1.88;;;1.45;;
31270;SDS011;17904;47.420;9.310;2022-07-11T05:03:34;5.57;;;2.00;;
31270;SDS011;17904;47.420;9.310;2022-07-11T05:06:02;5.53;;;1.83;;
31270;SDS011;17904;47.420;9.310;2022-07-11T05:08:30;3.85;;;2.00;;
31270;SDS011;17904;47.420;9.310;2022-07-11T05:10:57;1.88;;;1.50;;
31270;SDS011;17904;47.420;9.310;2022-07-11T05:13:24;3.28;;;1.60;;
31270;SDS011;17904;47.420;9.310;2022-07-11T05:15:51;2.33;;;2.10;;
31270;SDS011;17904;47.420;9.310;2022-07-11T05:18:18;4.50;;;2.10;;
31270;SDS011;17904;47.420;9.310;2022-07-11T05:20:45;4.93;;;2.10;;
31270;SDS011;17904;47.420;9.310;2022-07-11T05:23:15;2.42;;;1.98;;
31270;SDS011;17904;47.420;9.310;2022-07-11T05:25:42;5.35;;;1.80;;
31270;SDS011;17904;47.420;9.310;2022-07-11T05:28:09;2.65;;;1.95;;
31270;SDS011;17904;47.420;9.310;2022-07-11T05:30:36;5.63;;;2.65;;
31270;SDS011;17904;47.420;9.310;2022-07-11T05:33:03;3.10;;;2.05;;
31270;SDS011;17904;47.420;9.310;2022-07-11T05:35:30;5.13;;;2.30;;
31270;SDS011;17904;47.420;9.310;2022-07-11T05:37:58;3.85;;;2.03;;
31270;SDS011;17904;47.420;9.310;2022-07-11T05:40:25;6.63;;;2.10;;
31270;SDS011;17904;47.420;9.310;2022-07-11T05:42:52;3.15;;;1.80;;
31270;SDS011;17904;47.420;9.310;2022-07-11T05:45:19;1.90;;;1.52;;
31270;SDS011;17904;47.420;9.310;2022-07-11T05:50:13;5.38;;;1.98;;
31270;SDS011;17904;47.420;9.310;2022-07-11T05:52:40;11.73;;;2.70;;
31270;SDS011;17904;47.420;9.310;2022-07-11T05:55:07;6.72;;;1.90;;
31270;SDS011;17904;47.420;9.310;2022-07-11T05:57:41;3.88;;;1.80;;
31270;SDS011;17904;47.420;9.310;2022-07-11T06:00:09;5.80;;;1.92;;
31270;SDS011;17904;47.420;9.310;2022-07-11T06:02:36;4.38;;;2.67;;
31270;SDS011;17904;47.420;9.310;2022-07-11T06:05:04;4.13;;;1.52;;
31270;SDS011;17904;47.420;9.310;2022-07-11T06:07:31;3.78;;;1.92;;
31270;SDS011;17904;47.420;9.310;2022-07-11T06:10:25;8.15;;;1.83;;
31270;SDS011;17904;47.420;9.310;2022-07-11T06:12:54;5.20;;;1.95;;
31270;SDS011;17904;47.420;9.310;2022-07-11T06:15:21;3.38;;;1.88;;
31270;SDS011;17904;47.420;9.310;2022-07-11T06:17:48;3.70;;;1.88;;
31270;SDS011;17904;47.420;9.310;2022-07-11T06:20:16;3.72;;;2.03;;
31270;SDS011;17904;47.420;9.310;2022-07-11T06:22:43;8.48;;;2.33;;
31270;SDS011;17904;47.420;9.310;2022-07-11T06:25:11;4.95;;;1.65;;
31270;SDS011;17904;47.420;9.310;2022-07-11T06:27:38;7.60;;;1.83;;
31270;SDS011;17904;47.420;9.310;2022-07-11T06:30:05;2.55;;;1.73;;
31270;SDS011;17904;47.420;9.310;2022-07-11T06:32:33;2.25;;;1.45;;
31270;SDS011;17904;47.420;9.310;2022-07-11T06:35:00;2.63;;;1.65;;
31270;SDS011;17904;47.420;9.310;2022-07-11T06:37:27;3.53;;;1.50;;
31270;SDS011;17904;47.420;9.310;2022-07-11T06:39:55;4.78;;;1.75;;
31270;SDS011;17904;47.420;9.310;2022-07-11T06:42:22;4.50;;;1.50;;
31270;SDS011;17904;47.420;9.310;2022-07-11T06:44:54;3.55;;;1.90;;
31270;SDS011;17904;47.420;9.310;2022-07-11T06:47:21;7.22;;;1.70;;
31270;SDS011;17904;47.420;9.310;2022-07-11T06:49:48;4.40;;;1.55;;
31270;SDS011;17904;47.420;9.310;2022-07-11T06:52:15;4.90;;;2.00;;
31270;SDS011;17904;47.420;9.310;2022-07-11T06:54:42;1.48;;;1.13;;
31270;SDS011;17904;47.420;9.310;2022-07-11T06:57:09;3.53;;;1.45;;
31270;SDS011;17904;47.420;9.310;2022-07-11T06:59:38;6.80;;;1.95;;
31270;SDS011;17904;47.420;9.310;2022-07-11T07:02:05;3.00;;;1.52;;
31270;SDS011;17904;47.420;9.310;2022-07-11T07:04:33;4.53;;;1.75;;
31270;SDS011;17904;47.420;9.310;2022-07-11T07:07:01;3.50;;;1.40;;
31270;SDS011;17904;47.420;9.310;2022-07-11T07:09:28;7.05;;;1.92;;
31270;SDS011;17904;47.420;9.310;2022-07-11T07:11:55;7.32;;;1.67;;
31270;SDS011;17904;47.420;9.310;2022-07-11T07:14:23;2.72;;;1.40;;
31270;SDS011;17904;47.420;9.310;2022-07-11T07:16:51;5.65;;;1.30;;
31270;SDS011;17904;47.420;9.310;2022-07-11T07:19:18;4.65;;;1.50;;
31270;SDS011;17904;47.420;9.310;2022-07-11T07:21:45;4.45;;;1.50;;
31270;SDS011;17904;47.420;9.310;2022-07-11T07:24:12;3.80;;;1.23;;
31270;SDS011;17904;47.420;9.310;2022-07-11T07:26:43;5.05;;;1.30;;
31270;SDS011;17904;47.420;9.310;2022-07-11T07:29:11;4.50;;;1.20;;
31270;SDS011;17904;47.420;9.310;2022-07-11T07:31:38;7.32;;;1.50;;
31270;SDS011;17904;47.420;9.310;2022-07-11T07:34:05;5.65;;;1.38;;
31270;SDS011;17904;47.420;9.310;2022-07-11T07:36:34;3.72;;;2.05;;
31270;SDS011;17904;47.420;9.310;2022-07-11T07:39:02;3.20;;;1.45;;
31270;SDS011;17904;47.420;9.310;2022-07-11T07:41:30;4.40;;;1.85;;
31270;SDS011;17904;47.420;9.310;2022-07-11T07:43:57;2.78;;;1.48;;
31270;SDS011;17904;47.420;9.310;2022-07-11T07:46:25;5.03;;;1.80;;
31270;SDS011;17904;47.420;9.310;2022-07-11T07:48:53;6.55;;;2.10;;
31270;SDS011;17904;47.420;9.310;2022-07-11T07:51:20;6.93;;;2.40;;
31270;SDS011;17904;47.420;9.310;2022-07-11T07:53:48;2.63;;;1.65;;
31270;SDS011;17904;47.420;9.310;2022-07-11T07:56:22;7.22;;;1.63;;
31270;SDS011;17904;47.420;9.310;2022-07-11T07:58:50;4.68;;;1.65;;
31270;SDS011;17904;47.420;9.310;2022-07-11T08:01:20;3.95;;;1.52;;
31270;SDS011;17904;47.420;9.310;2022-07-11T08:04:03;5.75;;;1.20;;
31270;SDS011;17904;47.420;9.310;2022-07-11T08:06:32;3.67;;;1.30;;
31270;SDS011;17904;47.420;9.310;2022-07-11T08:09:00;7.53;;;1.50;;
31270;SDS011;17904;47.420;9.310;2022-07-11T08:11:27;3.83;;;0.93;;
31270;SDS011;17904;47.420;9.310;2022-07-11T08:13:57;4.60;;;1.75;;
31270;SDS011;17904;47.420;9.310;2022-07-11T08:16:25;3.83;;;1.65;;
31270;SDS011;17904;47.420;9.310;2022-07-11T08:18:57;5.63;;;1.70;;
31270;SDS011;17904;47.420;9.310;2022-07-11T08:21:26;5.30;;;1.23;;
31270;SDS011;17904;47.420;9.310;2022-07-11T08:23:57;6.28;;;1.25;;
31270;SDS011;17904;47.420;9.310;2022-07-11T08:26:25;2.28;;;1.13;;
31270;SDS011;17904;47.420;9.310;2022-07-11T08:28:59;3.13;;;1.10;;
31270;SDS011;17904;47.420;9.310;2022-07-11T08:31:27;3.83;;;1.10;;
31270;SDS011;17904;47.420;9.310;2022-07-11T08:33:54;5.28;;;1.55;;
31270;SDS011;17904;47.420;9.310;2022-07-11T08:36:24;5.18;;;1.13;;
31270;SDS011;17904;47.420;9.310;2022-07-11T08:38:51;5.45;;;1.63;;
31270;SDS011;17904;47.420;9.310;2022-07-11T08:41:18;3.50;;;1.20;;
31270;SDS011;17904;47.420;9.310;2022-07-11T08:43:46;4.32;;;1.35;;
31270;SDS011;17904;47.420;9.310;2022-07-11T08:46:14;5.25;;;1.15;;
31270;SDS011;17904;47.420;9.310;2022-07-11T08:48:42;3.72;;;1.38;;
31270;SDS011;17904;47.420;9.310;2022-07-11T08:51:09;4.22;;;1.30;;
31270;SDS011;17904;47.420;9.310;2022-07-11T08:53:40;1.77;;;0.90;;
31270;SDS011;17904;47.420;9.310;2022-07-11T08:56:12;8.50;;;1.65;;
31270;SDS011;17904;47.420;9.310;2022-07-11T08:58:45;4.78;;;2.38;;
31270;SDS011;17904;47.420;9.310;2022-07-11T09:01:22;2.92;;;1.00;;
31270;SDS011;17904;47.420;9.310;2022-07-11T09:03:55;4.93;;;1.20;;
31270;SDS011;17904;47.420;9.310;2022-07-11T09:06:23;6.15;;;1.42;;
31270;SDS011;17904;47.420;9.310;2022-07-11T09:08:50;5.72;;;1.33;;
31270;SDS011;17904;47.420;9.310;2022-07-11T09:11:17;5.05;;;1.10;;
31270;SDS011;17904;47.420;9.310;2022-07-11T09:13:44;5.90;;;0.90;;
31270;SDS011;17904;47.420;9.310;2022-07-11T09:16:12;2.80;;;0.95;;
31270;SDS011;17904;47.420;9.310;2022-07-11T09:18:40;5.32;;;1.23;;
31270;SDS011;17904;47.420;9.310;2022-07-11T09:21:11;3.55;;;1.10;;
31270;SDS011;17904;47.420;9.310;2022-07-11T09:24:00;1.92;;;0.98;;
31270;SDS011;17904;47.420;9.310;2022-07-11T09:26:48;2.35;;;1.00;;
31270;SDS011;17904;47.420;9.310;2022-07-11T09:29:18;3.90;;;1.27;;
31270;SDS011;17904;47.420;9.310;2022-07-11T09:31:50;3.83;;;1.25;;
31270;SDS011;17904;47.420;9.310;2022-07-11T09:34:19;7.90;;;1.42;;
31270;SDS011;17904;47.420;9.310;2022-07-11T09:36:50;3.50;;;1.20;;
31270;SDS011;17904;47.420;9.310;2022-07-11T09:39:21;4.18;;;1.20;;
31270;SDS011;17904;47.420;9.310;2022-07-11T09:41:53;3.17;;;1.30;;
31270;SDS011;17904;47.420;9.310;2022-07-11T09:44:22;4.30;;;1.20;;
31270;SDS011;17904;47.420;9.310;2022-07-11T09:46:54;1.58;;;0.80;;
31270;SDS011;17904;47.420;9.310;2022-07-11T09:49:32;9.52;;;1.30;;
31270;SDS011;17904;47.420;9.310;2022-07-11T09:52:14;3.47;;;1.08;;
31270;SDS011;17904;47.420;9.310;2022-07-11T09:54:55;2.45;;;1.20;;
31270;SDS011;17904;47.420;9.310;2022-07-11T09:57:28;4.63;;;1.73;;
31270;SDS011;17904;47.420;9.310;2022-07-11T09:59:55;3.17;;;1.05;;
31270;SDS011;17904;47.420;9.310;2022-07-11T10:02:23;4.20;;;1.45;;
31270;SDS011;17904;47.420;9.310;2022-07-11T10:04:51;2.35;;;1.13;;
31270;SDS011;17904;47.420;9.310;2022-07-11T10:07:19;2.78;;;1.00;;
31270;SDS011;17904;47.420;9.310;2022-07-11T10:09:47;3.17;;;1.17;;
31270;SDS011;17904;47.420;9.310;2022-07-11T10:12:14;3.38;;;1.10;;
31270;SDS011;17904;47.420;9.310;2022-07-11T10:14:41;3.50;;;1.15;;
31270;SDS011;17904;47.420;9.310;2022-07-11T10:17:15;4.72;;;1.20;;
31270;SDS011;17904;47.420;9.310;2022-07-11T10:19:56;4.65;;;1.10;;
31270;SDS011;17904;47.420;9.310;2022-07-11T10:22:42;2.15;;;1.48;;
31270;SDS011;17904;47.420;9.310;2022-07-11T10:25:27;3.72;;;1.40;;
31270;SDS011;17904;47.420;9.310;2022-07-11T10:28:11;3.13;;;1.30;;
31270;SDS011;17904;47.420;9.310;2022-07-11T10:30:49;5.82;;;1.27;;
31270;SDS011;17904;47.420;9.310;2022-07-11T10:33:18;4.78;;;1.50;;
31270;SDS011;17904;47.420;9.310;2022-07-11T10:35:46;5.60;;;1.48;;
31270;SDS011;17904;47.420;9.310;2022-07-11T10:38:17;2.70;;;1.08;;
31270;SDS011;17904;47.420;9.310;2022-07-11T10:40:45;1.98;;;0.95;;
31270;SDS011;17904;47.420;9.310;2022-07-11T10:43:16;3.17;;;1.15;;
31270;SDS011;17904;47.420;9.310;2022-07-11T10:45:59;3.50;;;1.30;;
31270;SDS011;17904;47.420;9.310;2022-07-11T10:48:35;20.38;;;1.80;;
31270;SDS011;17904;47.420;9.310;2022-07-11T10:51:24;4.53;;;1.10;;
31270;SDS011;17904;47.420;9.310;2022-07-11T10:57:22;1.80;;;1.20;;
31270;SDS011;17904;47.420;9.310;2022-07-11T11:00:21;7.93;;;1.20;;
31270;SDS011;17904;47.420;9.310;2022-07-11T11:02:59;1.27;;;1.00;;
31270;SDS011;17904;47.420;9.310;2022-07-11T11:05:41;2.05;;;0.98;;
31270;SDS011;17904;47.420;9.310;2022-07-11T11:11:03;3.17;;;1.25;;
31270;SDS011;17904;47.420;9.310;2022-07-11T11:13:32;3.20;;;1.10;;
31270;SDS011;17904;47.420;9.310;2022-07-11T11:16:21;2.42;;;1.50;;
31270;SDS011;17904;47.420;9.310;2022-07-11T11:18:49;4.60;;;1.00;;
31270;SDS011;17904;47.420;9.310;2022-07-11T11:21:17;2.83;;;1.23;;
31270;SDS011;17904;47.420;9.310;2022-07-11T11:23:59;6.45;;;1.30;;
31270;SDS011;17904;47.420;9.310;2022-07-11T11:26:43;4.90;;;1.40;;
31270;SDS011;17904;47.420;9.310;2022-07-11T11:29:22;6.93;;;1.42;;
31270;SDS011;17904;47.420;9.310;2022-07-11T11:31:53;8.27;;;1.20;;
31270;SDS011;17904;47.420;9.310;2022-07-11T11:34:22;4.90;;;1.42;;
31270;SDS011;17904;47.420;9.310;2022-07-11T11:36:56;4.13;;;1.30;;
31270;SDS011;17904;47.420;9.310;2022-07-11T11:39:27;4.32;;;1.23;;
31270;SDS011;17904;47.420;9.310;2022-07-11T11:42:07;1.70;;;1.23;;
31270;SDS011;17904;47.420;9.310;2022-07-11T11:44:52;2.47;;;1.15;;
31270;SDS011;17904;47.420;9.310;2022-07-11T11:47:22;5.63;;;1.17;;
31270;SDS011;17904;47.420;9.310;2022-07-11T11:49:50;3.35;;;1.17;;
31270;SDS011;17904;47.420;9.310;2022-07-11T11:52:18;2.20;;;1.10;;
31270;SDS011;17904;47.420;9.310;2022-07-11T11:54:53;5.70;;;1.20;;
31270;SDS011;17904;47.420;9.310;2022-07-11T11:57:22;3.80;;;1.10;;
31270;SDS011;17904;47.420;9.310;2022-07-11T11:59:51;3.13;;;1.40;;
31270;SDS011;17904;47.420;9.310;2022-07-11T12:02:26;2.92;;;1.17;;
31270;SDS011;17904;47.420;9.310;2022-07-11T12:04:55;3.75;;;1.05;;
31270;SDS011;17904;47.420;9.310;2022-07-11T12:07:27;5.88;;;1.52;;
31270;SDS011;17904;47.420;9.310;2022-07-11T12:09:57;1.77;;;0.93;;
31270;SDS011;17904;47.420;9.310;2022-07-11T12:12:27;4.07;;;1.67;;
31270;SDS011;17904;47.420;9.310;2022-07-11T12:15:24;4.18;;;1.35;;
31270;SDS011;17904;47.420;9.310;2022-07-11T12:17:57;2.75;;;1.15;;
31270;SDS011;17904;47.420;9.310;2022-07-11T12:20:37;1.63;;;1.08;;
31270;SDS011;17904;47.420;9.310;2022-07-11T12:23:05;6.38;;;1.63;;
31270;SDS011;17904;47.420;9.310;2022-07-11T12:25:43;3.22;;;1.50;;
31270;SDS011;17904;47.420;9.310;2022-07-11T12:28:12;4.20;;;1.35;;
31270;SDS011;17904;47.420;9.310;2022-07-11T12:30:41;3.05;;;1.20;;
31270;SDS011;17904;47.420;9.310;2022-07-11T12:33:09;4.93;;;1.38;;
31270;SDS011;17904;47.420;9.310;2022-07-11T12:35:55;5.18;;;1.30;;
31270;SDS011;17904;47.420;9.310;2022-07-11T12:38:24;1.83;;;1.02;;
31270;SDS011;17904;47.420;9.310;2022-07-11T12:41:02;7.15;;;1.23;;
31270;SDS011;17904;47.420;9.310;2022-07-11T12:46:31;3.65;;;1.35;;
31270;SDS011;17904;47.420;9.310;2022-07-11T12:49:03;0.90;;;0.90;;
31270;SDS011;17904;47.420;9.310;2022-07-11T12:51:32;2.65;;;1.33;;
31270;SDS011;17904;47.420;9.310;2022-07-11T12:54:07;3.78;;;1.02;;
31270;SDS011;17904;47.420;9.310;2022-07-11T12:56:36;2.97;;;0.98;;
31270;SDS011;17904;47.420;9.310;2022-07-11T12:59:04;2.00;;;0.85;;
31270;SDS011;17904;47.420;9.310;2022-07-11T13:01:36;2.58;;;1.00;;
31270;SDS011;17904;47.420;9.310;2022-07-11T13:04:37;2.22;;;1.02;;
31270;SDS011;17904;47.420;9.310;2022-07-11T13:10:17;4.43;;;1.20;;
31270;SDS011;17904;47.420;9.310;2022-07-11T13:12:45;4.25;;;1.10;;
31270;SDS011;17904;47.420;9.310;2022-07-11T13:15:14;4.88;;;0.80;;
31270;SDS011;17904;47.420;9.310;2022-07-11T13:17:45;9.18;;;1.05;;
31270;SDS011;17904;47.420;9.310;2022-07-11T13:20:16;4.07;;;1.17;;
31270;SDS011;17904;47.420;9.310;2022-07-11T13:22:50;0.98;;;0.43;;
31270;SDS011;17904;47.420;9.310;2022-07-11T13:25:19;5.07;;;1.00;;
31270;SDS011;17904;47.420;9.310;2022-07-11T13:27:47;1.73;;;0.60;;
31270;SDS011;17904;47.420;9.310;2022-07-11T13:30:18;3.22;;;0.70;;
31270;SDS011;17904;47.420;9.310;2022-07-11T13:33:05;4.75;;;0.70;;
31270;SDS011;17904;47.420;9.310;2022-07-11T13:35:33;2.15;;;0.85;;
31270;SDS011;17904;47.420;9.310;2022-07-11T13:38:00;1.88;;;0.70;;
31270;SDS011;17904;47.420;9.310;2022-07-11T13:40:28;1.58;;;0.98;;
31270;SDS011;17904;47.420;9.310;2022-07-11T13:42:55;1.45;;;0.70;;
31270;SDS011;17904;47.420;9.310;2022-07-11T13:45:23;2.05;;;0.70;;
31270;SDS011;17904;47.420;9.310;2022-07-11T13:47:50;1.58;;;0.90;;
31270;SDS011;17904;47.420;9.310;2022-07-11T13:50:19;1.65;;;0.77;;
31270;SDS011;17904;47.420;9.310;2022-07-11T13:52:48;3.55;;;1.30;;
31270;SDS011;17904;47.420;9.310;2022-07-11T13:55:16;1.23;;;0.73;;
31270;SDS011;17904;47.420;9.310;2022-07-11T13:57:46;2.30;;;0.60;;
31270;SDS011;17904;47.420;9.310;2022-07-11T14:00:20;1.63;;;0.70;;
31270;SDS011;17904;47.420;9.310;2022-07-11T14:02:47;0.93;;;0.50;;
31270;SDS011;17904;47.420;9.310;2022-07-11T14:05:16;1.25;;;0.70;;
31270;SDS011;17904;47.420;9.310;2022-07-11T14:07:47;1.65;;;0.52;;
31270;SDS011;17904;47.420;9.310;2022-07-11T14:10:15;1.00;;;0.60;;
31270;SDS011;17904;47.420;9.310;2022-07-11T14:12:42;1.65;;;0.57;;
31270;SDS011;17904;47.420;9.310;2022-07-11T14:15:10;2.47;;;0.50;;
31270;SDS011;17904;47.420;9.310;2022-07-11T14:17:38;1.40;;;0.52;;
31270;SDS011;17904;47.420;9.310;2022-07-11T14:20:05;1.50;;;0.70;;
31270;SDS011;17904;47.420;9.310;2022-07-11T14:22:34;1.00;;;0.50;;
31270;SDS011;17904;47.420;9.310;2022-07-11T14:25:01;3.80;;;0.57;;
31270;SDS011;17904;47.420;9.310;2022-07-11T14:27:28;0.57;;;0.40;;
31270;SDS011;17904;47.420;9.310;2022-07-11T14:29:56;2.97;;;0.60;;
31270;SDS011;17904;47.420;9.310;2022-07-11T14:32:23;2.72;;;0.60;;
31270;SDS011;17904;47.420;9.310;2022-07-11T14:34:50;5.45;;;1.42;;
31270;SDS011;17904;47.420;9.310;2022-07-11T14:37:17;0.98;;;0.40;;
31270;SDS011;17904;47.420;9.310;2022-07-11T14:39:44;1.73;;;0.40;;
31270;SDS011;17904;47.420;9.310;2022-07-11T14:42:12;7.65;;;0.35;;
31270;SDS011;17904;47.420;9.310;2022-07-11T14:44:59;1.38;;;0.32;;
31270;SDS011;17904;47.420;9.310;2022-07-11T14:47:26;1.73;;;0.57;;
31270;SDS011;17904;47.420;9.310;2022-07-11T14:49:53;1.48;;;0.55;;
31270;SDS011;17904;47.420;9.310;2022-07-11T14:52:20;1.33;;;0.60;;
31270;SDS011;17904;47.420;9.310;2022-07-11T14:54:48;3.38;;;1.45;;
31270;SDS011;17904;47.420;9.310;2022-07-11T14:57:15;0.82;;;0.52;;
31270;SDS011;17904;47.420;9.310;2022-07-11T14:59:42;1.60;;;0.30;;
31270;SDS011;17904;47.420;9.310;2022-07-11T15:02:09;1.88;;;0.55;;
31270;SDS011;17904;47.420;9.310;2022-07-11T15:04:37;3.03;;;0.50;;
31270;SDS011;17904;47.420;9.310;2022-07-11T15:07:11;2.63;;;0.68;;
31270;SDS011;17904;47.420;9.310;2022-07-11T15:09:57;2.15;;;0.60;;
31270;SDS011;17904;47.420;9.310;2022-07-11T15:12:43;1.35;;;0.60;;
31270;SDS011;17904;47.420;9.310;2022-07-11T15:15:10;3.17;;;0.90;;
31270;SDS011;17904;47.420;9.310;2022-07-11T15:17:37;1.80;;;0.82;;
31270;SDS011;17904;47.420;9.310;2022-07-11T15:20:04;7.53;;;0.65;;
31270;SDS011;17904;47.420;9.310;2022-07-11T15:22:32;0.82;;;0.68;;
31270;SDS011;17904;47.420;9.310;2022-07-11T15:24:59;1.55;;;0.45;;
31270;SDS011;17904;47.420;9.310;2022-07-11T15:27:26;0.57;;;0.30;;
31270;SDS011;17904;47.420;9.310;2022-07-11T15:29:54;5.13;;;0.75;;
31270;SDS011;17904;47.420;9.310;2022-07-11T15:32:21;1.80;;;0.52;;
31270;SDS011;17904;47.420;9.310;2022-07-11T15:34:48;0.43;;;0.30;;
31270;SDS011;17904;47.420;9.310;2022-07-11T15:37:15;0.93;;;0.50;;
31270;SDS011;17904;47.420;9.310;2022-07-11T15:39:43;5.50;;;0.50;;